Atlanta, MI

1:17 AM EST on March 06, 2015 (GMT -0500)
Moon Lake | Change Station
CLOSE
Current Station
Personal Weather Station
Location: Lewiston, MI
Elevation: 1240 ft
Nearby Weather Stations

Elev 1240 ft 44.84 °N, 84.26 °W | Updated 7 minutes ago

Partly Cloudy
Partly Cloudy
-1.8 °F
Feels Like -2 °F
N
0.0
Wind Variable Wind from SW
Gusts 0.0 mph

Today
High -- | Low -- °F
--% Chance of Precip.
Yesterday
High -- | Low -- °F
Precip. -- in
7:05 AM 6:30 PM
Full, 100% visible
Pressure 30.41 in
Visibility 10.0 miles
Clouds Mostly Cloudy 2200 ft
Windchill -2 °F
Dew Point -10 °F
Humidity 69%
Rainfall in
Snow Depth Not available.
UV 0 out of 12
Pollen .40 out of 12
Air Quality Not available.
Flu Activity Not available.
METAR KGLR 060553Z AUTO 23006KT 10SM BKN022 M17/M19 A3031 RMK AO2 SLP297 T11671189 11139 21183 58013

More Conditions Fewer Conditions

Pressure 30.41 in
Visibility 10.0 miles
Clouds Mostly Cloudy 2200 ft
Windchill -2 °F
Dew Point -10 °F
Humidity 69%
Rainfall in
Snow Depth Not available.
UV 0 out of 12
Pollen .40 out of 12
Air Quality Not available.
Flu Activity Not available.
METAR KGLR 060553Z AUTO 23006KT 10SM BKN022 M17/M19 A3031 RMK AO2 SLP297 T11671189 11139 21183 58013

More Conditions Fewer Conditions

Nowcast | as of 1:00 am EST on March 6, 2015

At 2 am...mostly clear. Temperature 3 below. Southwest winds 5 mph. At 4 am...mostly clear. Temperature 1 below. Southwest winds 5 mph. At 6 am...partly cloudy. Temperature 1 above. Southwest winds 5 mph. At 8 am...partly cloudy. Temperature 6 above. Southwest winds 7 mph.

×

10-Day Weather Forecast

Almanac

Astronomy

Mar. 06, 2015 Rise Set
Actual Time
Civil Twilight
Nautical Twilight
Astronomical Twilight
Moon
Length of Visible Light
Length of Day
Tomorrow will be .
, % of the Moon is Illuminated

Today's Extremes

State Highs State Lows

Community

WunderPhotos

Upload Photos

1,803,194 photos uploaded!

WunderBlogs® & News

Nearby

Air Quality

  Air Quality AQ Index Pollutant
Not available.

Snow Depth

Station Depth Elevation

Earthquake Activity

City Distance Mag. Time & Date
Minimum magnitude displayed is 2.5.

Coastal Water Temperatures

Place Temperature

Nearby Weather Stations